createdAt,value
2017-12-15T00:02:08.737Z,69.26
2017-12-15T00:04:36.293Z,68.82
2017-12-15T00:07:03.800Z,69.51
2017-12-15T00:09:31.514Z,68.81
2017-12-15T00:11:59.020Z,68.58
2017-12-15T00:14:26.622Z,68.44
2017-12-15T00:16:54.723Z,69.00
2017-12-15T00:19:22.261Z,69.00
2017-12-15T00:21:50.658Z,69.01
2017-12-15T00:24:18.201Z,69.50
2017-12-15T00:26:45.758Z,69.14
2017-12-15T00:29:13.265Z,68.92
2017-12-15T00:31:40.817Z,68.12
2017-12-15T00:34:08.325Z,68.95
2017-12-15T00:36:35.829Z,68.20
2017-12-15T00:39:03.398Z,68.57
2017-12-15T00:41:30.947Z,68.99
2017-12-15T00:43:58.474Z,68.65
2017-12-15T00:46:26.232Z,67.89
2017-12-15T00:48:53.738Z,68.55
2017-12-15T00:51:21.249Z,68.66
2017-12-15T00:53:49.331Z,68.69
2017-12-15T00:56:16.925Z,67.76
2017-12-15T00:58:44.426Z,67.50
2017-12-15T01:01:12.056Z,68.09
2017-12-15T01:03:39.561Z,68.25
2017-12-15T01:06:07.071Z,68.13
2017-12-15T01:08:34.880Z,67.97
2017-12-15T01:11:02.438Z,67.97
2017-12-15T01:13:29.947Z,68.16
2017-12-15T01:15:57.633Z,69.55
2017-12-15T01:18:25.138Z,68.66
2017-12-15T01:20:52.673Z,69.44
2017-12-15T01:23:20.232Z,70.15
2017-12-15T01:25:47.743Z,71.10
2017-12-15T01:28:15.250Z,71.79
2017-12-15T01:30:43.114Z,71.59
2017-12-15T01:33:10.623Z,73.22
2017-12-15T01:35:38.131Z,73.04
2017-12-15T01:38:05.894Z,72.35
2017-12-15T01:40:33.403Z,72.40
2017-12-15T01:43:00.994Z,73.22
2017-12-15T01:45:28.723Z,73.09
2017-12-15T01:47:56.226Z,72.94
2017-12-15T01:50:23.731Z,72.50
2017-12-15T01:52:51.358Z,72.98
2017-12-15T01:55:18.911Z,71.79
2017-12-15T01:57:46.410Z,72.02
2017-12-15T02:00:14.130Z,71.76
2017-12-15T02:02:41.635Z,70.78
2017-12-15T02:05:09.143Z,70.63
2017-12-15T02:07:36.718Z,68.87
2017-12-15T02:10:04.268Z,69.02
2017-12-15T02:12:31.824Z,68.97
2017-12-15T02:14:59.589Z,69.47
2017-12-15T02:17:27.094Z,69.68
2017-12-15T02:19:54.604Z,70.21
2017-12-15T02:22:22.178Z,69.78
2017-12-15T02:24:49.723Z,69.89
2017-12-15T02:27:17.231Z,69.59
2017-12-15T02:29:44.770Z,69.63
2017-12-15T02:32:12.297Z,70.41
2017-12-15T02:34:39.860Z,69.74
2017-12-15T02:37:07.517Z,69.69
2017-12-15T02:39:35.077Z,70.06
2017-12-15T02:42:02.587Z,69.85
2017-12-15T02:44:30.135Z,70.21
2017-12-15T02:46:57.652Z,70.28
2017-12-15T02:49:25.162Z,69.82
2017-12-15T02:51:52.975Z,70.07
2017-12-15T02:54:20.486Z,70.13
2017-12-15T02:56:48.005Z,69.76
2017-12-15T02:59:15.578Z,69.63
2017-12-15T03:01:43.155Z,69.65
2017-12-15T03:04:10.667Z,69.43
2017-12-15T03:06:38.246Z,69.08
2017-12-15T03:09:05.788Z,68.63
2017-12-15T03:11:33.346Z,68.41
2017-12-15T03:14:01.210Z,68.96
2017-12-15T03:16:29.180Z,69.17
2017-12-15T03:18:56.683Z,69.82
2017-12-15T03:21:24.235Z,70.94
2017-12-15T03:23:51.754Z,71.06
2017-12-15T03:26:19.258Z,72.29
2017-12-15T03:28:46.975Z,71.23
2017-12-15T03:31:14.479Z,70.95
2017-12-15T03:33:42.095Z,71.08
2017-12-15T03:36:09.662Z,71.32
2017-12-15T03:38:37.166Z,71.38
2017-12-15T03:41:04.680Z,71.08
2017-12-15T03:43:32.431Z,70.69
2017-12-15T03:45:59.935Z,71.02
2017-12-15T03:48:27.449Z,70.57
2017-12-15T03:50:55.085Z,70.96
2017-12-15T03:53:22.589Z,70.32
2017-12-15T03:55:50.126Z,70.10
2017-12-15T03:58:18.030Z,70.11
2017-12-15T04:00:45.532Z,69.24
2017-12-15T04:03:13.041Z,70.15
2017-12-15T04:05:40.590Z,70.85
2017-12-15T04:08:08.098Z,71.37
2017-12-15T04:10:35.992Z,70.84
2017-12-15T04:13:03.759Z,71.26
2017-12-15T04:15:31.314Z,70.87
2017-12-15T04:17:58.874Z,70.53
2017-12-15T04:20:26.613Z,69.96
2017-12-15T04:22:54.130Z,70.28
2017-12-15T04:25:21.634Z,70.12
2017-12-15T04:27:49.189Z,70.06
2017-12-15T04:30:16.713Z,70.36
2017-12-15T04:32:44.219Z,69.83
2017-12-15T04:35:11.991Z,69.87
2017-12-15T04:37:39.551Z,70.02
2017-12-15T04:40:07.109Z,70.19
2017-12-15T04:42:34.823Z,70.21
2017-12-15T04:45:02.945Z,70.89
2017-12-15T04:47:30.447Z,70.68
2017-12-15T04:49:58.471Z,71.27
2017-12-15T04:52:25.982Z,70.23
2017-12-15T04:54:53.487Z,70.08
2017-12-15T04:57:21.150Z,70.99
2017-12-15T04:59:48.709Z,69.78
2017-12-15T05:02:16.269Z,69.27
2017-12-15T05:04:43.827Z,68.92
2017-12-15T05:07:11.333Z,68.91
2017-12-15T05:09:38.842Z,69.36
2017-12-15T05:12:06.449Z,70.43
2017-12-15T05:14:33.961Z,70.86
2017-12-15T05:17:01.462Z,70.12
2017-12-15T05:19:29.154Z,70.23
2017-12-15T05:21:56.653Z,70.51
2017-12-15T05:24:24.964Z,71.82
2017-12-15T05:26:52.984Z,71.57
2017-12-15T05:29:20.540Z,69.65
2017-12-15T05:31:48.042Z,70.16
2017-12-15T05:34:15.753Z,70.12
2017-12-15T05:36:43.259Z,69.82
2017-12-15T05:39:10.766Z,69.98
2017-12-15T05:41:38.548Z,69.81
2017-12-15T05:44:06.046Z,69.44
2017-12-15T05:46:33.560Z,68.98
2017-12-15T05:49:01.542Z,68.84
2017-12-15T05:51:29.088Z,68.89
2017-12-15T05:53:56.590Z,68.60
2017-12-15T05:56:24.223Z,68.34
2017-12-15T05:58:51.765Z,68.28
2017-12-15T06:01:19.265Z,68.50
2017-12-15T06:03:46.985Z,68.30
2017-12-15T06:06:14.490Z,68.74
2017-12-15T06:08:42.081Z,67.72
2017-12-15T06:11:09.841Z,67.96
2017-12-15T06:13:37.346Z,68.20
2017-12-15T06:16:04.902Z,68.28
2017-12-15T06:18:32.739Z,68.96
2017-12-15T06:21:00.243Z,69.08
2017-12-15T06:23:27.750Z,69.05
2017-12-15T06:25:55.326Z,69.15
2017-12-15T06:28:22.834Z,68.96
2017-12-15T06:30:50.374Z,69.03
2017-12-15T06:33:18.309Z,68.16
2017-12-15T06:35:45.869Z,68.37
2017-12-15T06:38:13.455Z,67.12
2017-12-15T06:40:41.211Z,67.16
2017-12-15T06:43:08.718Z,68.50
2017-12-15T06:45:36.719Z,67.58
2017-12-15T06:48:04.254Z,66.58
2017-12-15T06:50:31.757Z,67.44
2017-12-15T06:52:59.258Z,67.83
2017-12-15T06:55:27.015Z,67.88
2017-12-15T06:57:54.494Z,68.02
2017-12-15T07:00:21.999Z,67.42
2017-12-15T07:02:49.736Z,66.70
2017-12-15T07:05:17.250Z,66.55
2017-12-15T07:07:44.761Z,65.97
2017-12-15T07:10:12.311Z,66.53
2017-12-15T07:12:40.791Z,66.37
2017-12-15T07:15:09.273Z,65.86
2017-12-15T07:17:37.035Z,65.99
2017-12-15T07:20:04.533Z,66.20
2017-12-15T07:22:32.051Z,66.02
2017-12-15T07:24:59.789Z,66.05
2017-12-15T07:27:27.295Z,66.26
2017-12-15T07:29:54.812Z,66.55
2017-12-15T07:32:22.355Z,66.59
2017-12-15T07:34:49.872Z,66.82
2017-12-15T07:37:17.377Z,66.63
2017-12-15T07:39:45.272Z,66.92
2017-12-15T07:42:12.822Z,66.28
2017-12-15T07:44:40.362Z,66.16
2017-12-15T07:47:07.953Z,66.44
2017-12-15T07:49:35.514Z,65.37
2017-12-15T07:52:03.018Z,64.47
2017-12-15T07:54:30.627Z,64.46
2017-12-15T07:56:58.184Z,63.32
2017-12-15T07:59:25.745Z,63.60
2017-12-15T08:01:53.516Z,63.36
2017-12-15T08:04:21.022Z,62.97
2017-12-15T08:06:48.530Z,62.37
2017-12-15T08:09:16.597Z,62.69
2017-12-15T08:11:44.361Z,62.02
2017-12-15T08:14:11.917Z,61.34
2017-12-15T08:16:40.091Z,60.97
2017-12-15T08:19:07.878Z,61.22
2017-12-15T08:21:35.515Z,61.57
2017-12-15T08:24:03.506Z,60.99
2017-12-15T08:26:31.146Z,61.04
2017-12-15T08:28:58.798Z,61.24
2017-12-15T08:31:26.940Z,61.55
2017-12-15T08:33:54.494Z,61.47
2017-12-15T08:36:22.001Z,61.18
2017-12-15T08:38:50.339Z,61.42
2017-12-15T08:41:18.753Z,61.09
2017-12-15T08:43:46.304Z,61.71
2017-12-15T08:48:47.269Z,60.51
2017-12-15T08:51:14.886Z,60.66
2017-12-15T08:53:42.418Z,60.60
2017-12-15T08:56:10.815Z,60.95
2017-12-15T08:58:41.090Z,61.56
2017-12-15T09:01:08.595Z,61.57
2017-12-15T09:03:36.186Z,61.48
2017-12-15T09:06:03.976Z,61.21
2017-12-15T09:08:33.277Z,60.74
2017-12-15T09:11:02.386Z,60.89
2017-12-15T09:13:30.027Z,60.97
2017-12-15T09:15:58.302Z,60.27
2017-12-15T09:18:25.813Z,60.89
2017-12-15T09:20:53.364Z,61.63
2017-12-15T09:23:21.904Z,60.91
2017-12-15T09:25:51.355Z,61.37
2017-12-15T09:28:20.120Z,59.72
2017-12-15T09:30:48.442Z,58.14
2017-12-15T09:33:17.793Z,58.81
2017-12-15T09:35:47.197Z,57.36
2017-12-15T09:38:16.039Z,56.17
2017-12-15T09:40:43.725Z,51.99
2017-12-15T09:43:11.506Z,49.22
2017-12-15T09:45:39.877Z,48.35
2017-12-15T09:48:07.504Z,47.27
2017-12-15T09:50:35.105Z,52.01
2017-12-15T09:53:02.635Z,52.57
2017-12-15T09:55:30.142Z,53.93
2017-12-15T09:57:58.073Z,54.80
2017-12-15T10:00:25.586Z,55.36
2017-12-15T10:02:53.102Z,55.41
2017-12-15T10:05:20.853Z,54.92
2017-12-15T10:07:48.359Z,54.48
2017-12-15T10:10:15.870Z,51.33
2017-12-15T10:12:43.827Z,52.60
2017-12-15T10:15:11.335Z,55.13
2017-12-15T10:17:38.856Z,56.63
2017-12-15T10:20:06.620Z,57.27
2017-12-15T10:22:34.122Z,57.00
2017-12-15T10:25:01.633Z,57.11
2017-12-15T10:27:29.179Z,56.05
2017-12-15T10:29:56.681Z,54.41
2017-12-15T10:32:24.209Z,51.97
2017-12-15T10:34:51.846Z,50.80
2017-12-15T10:37:19.350Z,51.06
2017-12-15T10:39:46.884Z,52.25
2017-12-15T10:42:14.670Z,54.60
2017-12-15T10:44:42.208Z,51.17
2017-12-15T10:47:09.767Z,47.41
2017-12-15T10:49:37.506Z,44.72
2017-12-15T10:52:05.028Z,45.80
2017-12-15T10:54:32.534Z,44.39
2017-12-15T10:57:00.091Z,46.14
2017-12-15T10:59:27.604Z,50.36
2017-12-15T11:01:55.160Z,51.01
2017-12-15T11:04:22.732Z,50.24
2017-12-15T11:06:50.242Z,51.15
2017-12-15T11:09:17.747Z,51.55
2017-12-15T11:11:45.300Z,50.78
2017-12-15T11:14:12.917Z,51.84
2017-12-15T11:16:40.592Z,52.77
2017-12-15T11:19:08.137Z,52.66
2017-12-15T11:21:35.642Z,53.23
2017-12-15T11:24:03.152Z,53.04
2017-12-15T11:26:30.839Z,49.96
2017-12-15T11:28:58.347Z,44.86
2017-12-15T11:31:25.866Z,47.31
2017-12-15T11:33:53.439Z,47.30
2017-12-15T11:36:20.951Z,49.00
2017-12-15T11:38:48.523Z,50.89
2017-12-15T11:41:16.271Z,48.39
2017-12-15T11:43:43.774Z,49.88
2017-12-15T11:46:11.390Z,47.32
2017-12-15T11:48:39.153Z,49.61
2017-12-15T11:51:06.722Z,48.96
2017-12-15T11:53:34.272Z,49.23
2017-12-15T11:56:02.017Z,51.75
2017-12-15T11:58:29.526Z,51.25
2017-12-15T12:00:57.051Z,52.18
2017-12-15T12:03:24.917Z,52.47
2017-12-15T12:05:52.477Z,53.75
2017-12-15T12:08:19.983Z,53.04
2017-12-15T12:10:47.696Z,53.47
2017-12-15T12:13:15.201Z,54.07
2017-12-15T12:15:42.711Z,54.37
2017-12-15T12:18:10.258Z,54.81
2017-12-15T12:20:37.784Z,55.63
2017-12-15T12:23:05.302Z,56.39
2017-12-15T12:25:33.051Z,57.42
2017-12-15T12:28:00.563Z,58.96
2017-12-15T12:30:28.097Z,60.75
2017-12-15T12:32:55.654Z,61.43
2017-12-15T12:35:23.178Z,62.04
2017-12-15T12:37:50.687Z,62.33
2017-12-15T12:40:18.239Z,61.65
2017-12-15T12:42:45.742Z,61.24
2017-12-15T12:45:13.599Z,60.30
2017-12-15T12:47:41.193Z,59.18
2017-12-15T12:50:08.847Z,59.73
2017-12-15T12:52:36.409Z,60.09
2017-12-15T12:55:03.958Z,60.28
2017-12-15T12:57:31.465Z,58.92
2017-12-15T12:59:59.378Z,57.72
2017-12-15T13:02:27.978Z,58.02
2017-12-15T13:04:55.531Z,57.50
2017-12-15T13:07:23.043Z,57.38
2017-12-15T13:09:50.789Z,56.68
2017-12-15T13:12:18.310Z,56.60
2017-12-15T13:14:45.884Z,56.84
2017-12-15T13:17:13.473Z,56.38
2017-12-15T13:19:41.401Z,55.69
2017-12-15T13:22:08.958Z,55.68
2017-12-15T13:24:36.899Z,55.65
2017-12-15T13:27:05.101Z,57.20
2017-12-15T13:29:32.764Z,58.12
2017-12-15T13:32:00.517Z,59.21
2017-12-15T13:34:28.064Z,60.67
2017-12-15T13:36:55.849Z,61.61
2017-12-15T13:39:24.125Z,62.43
2017-12-15T13:41:51.684Z,63.02
2017-12-15T13:44:19.245Z,62.48
2017-12-15T13:46:47.211Z,63.37
2017-12-15T13:49:14.827Z,63.20
2017-12-15T13:51:42.364Z,63.52
2017-12-15T13:54:10.079Z,64.09
2017-12-15T13:56:37.948Z,64.11
2017-12-15T13:59:05.623Z,64.78
2017-12-15T14:01:33.169Z,64.92
2017-12-15T14:04:00.842Z,64.81
2017-12-15T14:06:28.484Z,64.74
2017-12-15T14:08:56.242Z,63.75
2017-12-15T14:11:23.975Z,64.09
2017-12-15T14:13:51.591Z,64.90
2017-12-15T14:16:20.072Z,65.03
2017-12-15T14:18:47.606Z,65.31
2017-12-15T14:21:15.117Z,65.42
2017-12-15T14:23:42.954Z,65.87
2017-12-15T14:26:10.479Z,65.79
2017-12-15T14:28:38.293Z,65.12
2017-12-15T14:31:06.138Z,66.18
2017-12-15T14:33:33.651Z,66.39
2017-12-15T14:36:01.158Z,65.89
2017-12-15T14:38:28.938Z,66.58
2017-12-15T14:40:57.198Z,67.19
2017-12-15T14:43:24.759Z,66.57
2017-12-15T14:45:52.726Z,65.67
2017-12-15T14:48:20.302Z,64.76
2017-12-15T14:50:47.844Z,64.71
2017-12-15T14:53:15.582Z,64.59
2017-12-15T14:55:43.098Z,63.19
2017-12-15T14:58:10.623Z,62.46
2017-12-15T15:00:38.228Z,61.34
2017-12-15T15:03:05.787Z,60.83
2017-12-15T15:05:33.402Z,60.24
2017-12-15T15:08:01.034Z,58.95
2017-12-15T15:10:28.594Z,58.66
2017-12-15T15:12:56.389Z,59.21
2017-12-15T15:15:24.156Z,58.69
2017-12-15T15:17:51.925Z,60.11
2017-12-15T15:20:19.782Z,59.85
2017-12-15T15:22:47.521Z,59.04
2017-12-15T15:25:15.206Z,58.61
2017-12-15T15:27:42.773Z,59.25
2017-12-15T15:30:10.339Z,59.22
2017-12-15T15:32:38.294Z,60.00
2017-12-15T15:35:05.944Z,59.90
2017-12-15T15:37:34.162Z,59.62
2017-12-15T15:40:01.756Z,59.67
2017-12-15T15:42:29.282Z,60.42
2017-12-15T15:44:57.321Z,60.00
2017-12-15T15:47:24.847Z,60.28
2017-12-15T15:49:52.354Z,60.82
2017-12-15T15:52:19.995Z,60.87
2017-12-15T15:54:47.553Z,61.16
2017-12-15T15:57:15.065Z,60.22
2017-12-15T15:59:42.797Z,60.59
2017-12-15T16:02:10.744Z,60.15
2017-12-15T16:04:38.273Z,59.81
2017-12-15T16:07:05.861Z,60.42
2017-12-15T16:09:33.450Z,60.35
2017-12-15T16:12:00.979Z,60.40
2017-12-15T16:14:28.747Z,60.27
2017-12-15T16:16:56.260Z,60.02
2017-12-15T16:19:24.169Z,61.00
2017-12-15T16:21:51.928Z,59.79
2017-12-15T16:24:19.493Z,59.19
2017-12-15T16:26:47.312Z,59.46
2017-12-15T16:29:15.224Z,59.85
2017-12-15T16:31:42.763Z,59.61
2017-12-15T16:34:10.343Z,59.77
2017-12-15T16:36:38.107Z,60.32
2017-12-15T16:39:05.886Z,60.41
2017-12-15T16:41:33.642Z,59.83
2017-12-15T16:44:01.500Z,60.29
2017-12-15T16:46:29.061Z,60.39
2017-12-15T16:48:56.598Z,60.26
2017-12-15T16:51:24.689Z,60.28
2017-12-15T16:53:52.254Z,60.28
2017-12-15T16:56:20.012Z,59.91
2017-12-15T16:58:47.675Z,59.96
2017-12-15T17:01:15.219Z,59.97
2017-12-15T17:03:42.727Z,59.73
2017-12-15T17:06:10.556Z,59.77
2017-12-15T17:08:38.115Z,59.35
2017-12-15T17:11:05.630Z,58.97
2017-12-15T17:13:33.542Z,59.02
2017-12-15T17:16:01.050Z,58.92
2017-12-15T17:18:28.565Z,58.71
2017-12-15T17:20:56.427Z,58.74
2017-12-15T17:23:24.012Z,58.46
2017-12-15T17:25:51.543Z,58.45
2017-12-15T17:28:19.299Z,59.10
2017-12-15T17:30:46.883Z,59.53
2017-12-15T17:33:14.578Z,60.17
2017-12-15T17:35:42.177Z,60.44
2017-12-15T17:38:09.671Z,60.41
2017-12-15T17:40:37.188Z,60.91
2017-12-15T17:43:04.995Z,60.61
2017-12-15T17:45:32.577Z,60.04
2017-12-15T17:48:00.127Z,60.67
2017-12-15T17:50:27.949Z,60.88
2017-12-15T17:52:55.512Z,62.27
2017-12-15T17:55:23.010Z,63.22
2017-12-15T17:57:51.446Z,63.17
2017-12-15T18:00:19.006Z,63.54
2017-12-15T18:02:46.568Z,63.30
2017-12-15T18:05:14.235Z,63.05
2017-12-15T18:07:41.733Z,63.51
2017-12-15T18:10:09.344Z,63.50
2017-12-15T18:12:37.006Z,62.86
2017-12-15T18:15:04.564Z,63.42
2017-12-15T18:17:32.124Z,63.59
2017-12-15T18:19:59.955Z,63.65
2017-12-15T18:22:27.462Z,64.95
2017-12-15T18:24:54.994Z,65.92
2017-12-15T18:27:22.875Z,66.97
2017-12-15T18:29:50.392Z,66.50
2017-12-15T18:32:18.084Z,68.16
2017-12-15T18:34:46.368Z,67.99
2017-12-15T18:37:14.031Z,67.39
2017-12-15T18:39:41.608Z,68.12
2017-12-15T18:42:09.459Z,68.27
2017-12-15T18:44:38.018Z,68.03
2017-12-15T18:47:05.802Z,67.58
2017-12-15T18:49:33.593Z,67.88
2017-12-15T18:52:01.331Z,67.13
2017-12-15T18:54:28.992Z,67.60
2017-12-15T18:56:56.676Z,67.53
2017-12-15T18:59:24.212Z,67.41
2017-12-15T19:01:51.977Z,67.25
2017-12-15T19:04:19.876Z,67.27
2017-12-15T19:06:47.611Z,66.80
2017-12-15T19:09:15.267Z,66.79
2017-12-15T19:11:42.827Z,67.47
2017-12-15T19:14:10.513Z,68.29
2017-12-15T19:16:38.663Z,67.96
2017-12-15T19:19:06.848Z,68.08
2017-12-15T19:21:35.439Z,67.82
2017-12-15T19:24:03.490Z,67.44
2017-12-15T19:26:31.799Z,67.51
2017-12-15T19:28:59.530Z,68.09
2017-12-15T19:31:27.196Z,68.27
2017-12-15T19:33:55.002Z,67.77
2017-12-15T19:36:22.718Z,68.46
2017-12-15T19:38:54.192Z,68.99
2017-12-15T19:41:22.035Z,68.50
2017-12-15T19:43:50.416Z,68.13
2017-12-15T19:46:19.118Z,68.74
2017-12-15T19:48:46.847Z,68.58
2017-12-15T19:51:14.733Z,68.81
2017-12-15T19:53:42.610Z,68.39
2017-12-15T19:56:10.422Z,68.52
2017-12-15T19:58:38.230Z,68.13
2017-12-15T20:01:06.091Z,68.74
2017-12-15T20:03:33.857Z,68.92
2017-12-15T20:06:02.463Z,68.94
2017-12-15T20:08:30.479Z,69.75
2017-12-15T20:10:58.280Z,69.09
2017-12-15T20:13:26.044Z,69.39
2017-12-15T20:15:54.007Z,68.71
2017-12-15T20:18:21.874Z,69.21
2017-12-15T20:20:49.687Z,68.68
2017-12-15T20:23:17.918Z,67.80
2017-12-15T20:25:46.291Z,69.02
2017-12-15T20:28:14.056Z,68.99
2017-12-15T20:30:42.144Z,69.56
2017-12-15T20:33:09.993Z,70.13
2017-12-15T20:35:37.869Z,70.47
2017-12-15T20:38:05.889Z,71.17
2017-12-15T20:40:33.796Z,70.69
2017-12-15T20:43:01.501Z,71.33
2017-12-15T20:45:29.451Z,70.84
2017-12-15T20:47:57.195Z,70.07
2017-12-15T20:50:25.178Z,70.09
2017-12-15T20:52:53.374Z,70.01
2017-12-15T20:55:21.098Z,69.31
2017-12-15T20:57:48.861Z,67.91
2017-12-15T21:00:16.848Z,67.15
2017-12-15T21:02:45.208Z,67.25
2017-12-15T21:05:13.190Z,68.03
2017-12-15T21:07:41.301Z,67.47
2017-12-15T21:10:09.322Z,67.29
2017-12-15T21:12:36.988Z,67.53
2017-12-15T21:15:05.162Z,66.68
2017-12-15T21:17:32.918Z,66.65
2017-12-15T21:20:00.494Z,66.85
2017-12-15T21:22:28.451Z,66.68
2017-12-15T21:24:56.007Z,66.64
2017-12-15T21:27:23.855Z,67.19
2017-12-15T21:29:52.043Z,68.12
2017-12-15T21:32:19.754Z,67.76
2017-12-15T21:34:47.476Z,67.32
2017-12-15T21:37:15.150Z,67.82
2017-12-15T21:39:42.691Z,68.46
2017-12-15T21:42:10.327Z,68.10
2017-12-15T21:44:38.013Z,67.41
2017-12-15T21:47:05.620Z,67.23
2017-12-15T21:49:33.336Z,67.82
2017-12-15T21:52:01.563Z,67.95
2017-12-15T21:54:29.534Z,69.74
2017-12-15T21:56:57.337Z,67.76
2017-12-15T21:59:25.212Z,67.94
2017-12-15T22:01:53.181Z,68.78
2017-12-15T22:04:20.763Z,68.48
2017-12-15T22:06:48.523Z,68.69
2017-12-15T22:09:16.063Z,69.18
2017-12-15T22:11:44.646Z,67.77
2017-12-15T22:14:12.718Z,67.34
2017-12-15T22:16:40.277Z,67.38
2017-12-15T22:19:07.836Z,67.29
2017-12-15T22:21:35.804Z,67.72
2017-12-15T22:24:03.466Z,68.30
2017-12-15T22:26:31.023Z,68.63
2017-12-15T22:28:59.198Z,68.77
2017-12-15T22:31:26.758Z,67.98
2017-12-15T22:33:54.334Z,68.11
2017-12-15T22:36:21.986Z,68.08
2017-12-15T22:38:49.537Z,68.05
2017-12-15T22:41:17.097Z,68.11
2017-12-15T22:43:44.785Z,67.47
2017-12-15T22:46:12.335Z,67.37
2017-12-15T22:48:39.876Z,68.00
2017-12-15T22:51:07.644Z,67.52
2017-12-15T22:53:35.694Z,67.48
2017-12-15T22:56:03.874Z,67.12
2017-12-15T22:58:31.754Z,66.77
2017-12-15T23:01:00.927Z,67.11
2017-12-15T23:03:29.654Z,67.44
2017-12-15T23:05:57.307Z,67.44
2017-12-15T23:08:27.535Z,67.65
2017-12-15T23:10:55.074Z,67.82
2017-12-15T23:13:22.737Z,68.29
2017-12-15T23:15:50.296Z,67.81
2017-12-15T23:18:17.857Z,67.35
2017-12-15T23:20:46.541Z,68.31
2017-12-15T23:23:14.963Z,68.07
2017-12-15T23:25:44.026Z,68.41
2017-12-15T23:28:11.780Z,68.43
2017-12-15T23:30:39.339Z,68.33
2017-12-15T23:33:06.858Z,68.03
2017-12-15T23:35:34.405Z,67.69
2017-12-15T23:38:02.412Z,68.10
2017-12-15T23:40:29.922Z,68.52
2017-12-15T23:42:57.545Z,67.54
2017-12-15T23:45:25.046Z,66.89
2017-12-15T23:47:52.588Z,66.93
2017-12-15T23:50:20.527Z,66.96
2017-12-15T23:52:48.043Z,67.07
2017-12-15T23:55:27.729Z,67.04
2017-12-15T23:57:55.238Z,67.02
